메인 페이지
METAR-TAF:

METAR-TAF

공항 :

코모도로 아르투로 메리노 베니테스 국제공항

산티아고, 칠레

위도: 33-23S, 경도: 070-47W, 고도: 475m

현재 날씨관측

예보는 15분 전, 20:00시(UTC)에 발표되었습니다.
16kt
온도 16°C
습도 55%
기압 1017 hPa
시정 10km 이상
고도 2500ft 상공 구름 보통
고도 5000ft 상공 구름 많음

METAR: SCEL 182000Z 28016KT 9999 SCT025 BKN050 16/07 Q1017 NOSIG

시각: 17:15 (20:15 UTC)

예보

예보는 33분 전, 19:42시(UTC)에 발표되었습니다.
예보 대상 시간: 18일 20시부터 19일 18시까지 (UTC)
남남서12kt
시정 10km 이상
고도 2000ft 상공 구름 보통
고도 3500ft 상공 구름 많음
고도 5000ft 상공 구름 많음
약한소나기
전환 중
19일 01시부터 19일 03시까지 (UTC)
4kt
시정: 7000m
전환 중
19일 06시부터 19일 08시까지 (UTC)
시정: 4000m
고도 14000ft 상공 구름 많음
박무
일시적
19일 08시부터 19일 15시까지 (UTC)
여러 방향의 바람 2kt
시정: 0400m
고도 200ft 상공 구름 보통
곳곳에 안개
전환 중
19일 16시부터 19일 18시까지 (UTC)
시정: 7000m
고도 10000ft 상공 구름 보통
고도 20000ft 상공 구름 많음

TAF: SCEL 181942Z 1820/1918 21012KT 9999 -SHRA SCT020 BKN035 BKN050 TX15/1820Z TN05/1911Z BECMG 1901/1903 17004KT 7000 NSC BECMG 1906/1908 4000 BR BKN140 TEMPO 1908/1915 VRB02KT 0400 BCFG SCT002 BECMG 1916/1918 7000 SCT100 BKN200

4,000개 이상의 공항 관측 자료 및 예보 (METAR 및 TAF 보고).

지도상에서 검색 가능한 기상관측소가 노란 점과 빨간 점으로 표시되어 있습니다.

기상관측소 명을 보려면 표시 위로 마우스를 이동하세요.

날씨 관측과 예보를 보려면 클릭하세요.

지도 변경 : 확대하려면 엑스 표시가 있는 녹색 버튼, 축소하려면 빼기 표시가 있는 녹색 버튼, 다음 페이지의 지도를 보려면 녹색 화살표를 클릭하세요.


METAR-TAF: